Time;durP1;ratioP1;P1;durP2;ratioP2;P2;SDS_P1;SDS_P2;PMS_P1;PMS_P2;Temp;Humidity;BMP_temperature;BMP_pressure;BME280_temperature;BME280_humidity;BME280_pressure;Samples;Min_cycle;Max_cycle;Signal;HPM_P1;HPM_P2
2022/10/12 00:02:20;;;;;;;2.33;1.30;;;;;;;8.35;59.18;102391.56;4906838;28;97216;-47
2022/10/12 00:04:45;;;;;;;6.33;1.43;;;;;;;8.32;59.33;102393.25;4907286;28;97126;-47
2022/10/12 00:07:11;;;;;;;4.93;1.70;;;;;;;8.28;59.39;102392.53;4909447;28;97505;-47
2022/10/12 00:09:36;;;;;;;2.00;1.30;;;;;;;8.28;59.36;102398.03;4906013;28;102575;-47
2022/10/12 00:12:01;;;;;;;1.57;1.47;;;;;;;8.23;59.10;102390.31;4911126;28;99149;-48
2022/10/12 00:14:27;;;;;;;12.23;1.43;;;;;;;8.19;59.29;102401.38;4909606;28;97396;-49
2022/10/12 00:16:52;;;;;;;3.90;1.20;;;;;;;8.19;59.21;102397.88;4907448;28;103107;-47
2022/10/12 00:19:17;;;;;;;4.30;1.20;;;;;;;8.13;59.04;102399.59;4905501;28;97280;-47
2022/10/12 00:21:43;;;;;;;2.27;1.20;;;;;;;8.07;59.23;102413.06;4909001;28;97297;-48
2022/10/12 00:24:08;;;;;;;1.80;1.60;;;;;;;8.03;59.20;102398.69;4905879;28;97134;-48
2022/10/12 00:26:34;;;;;;;3.00;1.60;;;;;;;7.99;59.32;102406.25;4906416;28;98952;-48
2022/10/12 00:29:00;;;;;;;5.70;1.50;;;;;;;7.98;59.48;102403.91;4908245;28;98273;-48
2022/10/12 00:31:27;;;;;;;3.37;1.30;;;;;;;7.97;59.53;102403.13;4907220;28;97443;-48
2022/10/12 00:33:52;;;;;;;3.97;1.20;;;;;;;7.98;59.63;102392.94;4908034;28;97457;-47
2022/10/12 00:36:31;;;;;;;3.57;1.23;;;;;;;7.98;59.34;102414.88;4907988;28;97260;-48
2022/10/12 00:38:58;;;;;;;5.97;2.40;;;;;;;7.97;59.37;102403.13;4905873;28;100584;-47
2022/10/12 00:41:30;;;;;;;2.03;1.13;;;;;;;7.96;59.12;102395.34;4907288;28;97581;-48
2022/10/12 00:43:56;;;;;;;3.53;1.57;;;;;;;7.92;59.30;102391.94;4907338;28;97533;-47
2022/10/12 00:46:34;;;;;;;1.90;1.13;;;;;;;7.89;59.24;102392.78;4907550;28;97119;-47
2022/10/12 00:49:19;;;;;;;1.60;1.10;;;;;;;7.84;59.31;102402.28;4906638;28;100182;-48
2022/10/12 00:51:57;;;;;;;2.83;1.20;;;;;;;7.83;59.29;102409.00;4908050;28;96933;-47
2022/10/12 00:54:27;;;;;;;4.07;1.00;;;;;;;7.83;59.45;102424.66;4907830;28;97409;-47
2022/10/12 00:56:55;;;;;;;2.03;1.30;;;;;;;7.81;59.57;102416.88;4909594;28;97625;-47
2022/10/12 00:59:27;;;;;;;4.43;1.40;;;;;;;7.81;59.56;102416.88;4906479;28;97992;-47
2022/10/12 01:01:53;;;;;;;4.70;1.70;;;;;;;7.76;59.20;102411.91;4907962;28;96981;-48
2022/10/12 01:04:19;;;;;;;6.67;2.20;;;;;;;7.74;59.34;102411.56;4907292;28;97225;-48
2022/10/12 01:06:44;;;;;;;2.57;1.53;;;;;;;7.67;59.53;102413.69;4905404;28;97382;-48
2022/10/12 01:09:10;;;;;;;2.20;1.40;;;;;;;7.64;59.71;102418.09;4907094;28;96690;-48
2022/10/12 01:11:35;;;;;;;8.43;2.00;;;;;;;7.66;59.67;102414.91;4906832;28;97114;-47
2022/10/12 01:14:01;;;;;;;1.70;1.60;;;;;;;7.67;59.67;102411.75;4907832;28;97374;-47
2022/10/12 01:16:40;;;;;;;4.37;1.50;;;;;;;7.70;59.56;102415.59;4905807;28;96833;-48
2022/10/12 01:19:05;;;;;;;2.17;1.37;;;;;;;7.65;59.48;102411.41;4906798;28;97385;-47
2022/10/12 01:21:36;;;;;;;5.93;1.50;;;;;;;7.64;59.72;102409.88;4908474;28;96943;-48
2022/10/12 01:24:23;;;;;;;3.70;1.60;;;;;;;7.65;59.79;102405.16;4910054;28;98590;-48
2022/10/12 01:27:04;;;;;;;2.43;1.37;;;;;;;7.58;59.55;102400.63;4907092;28;98281;-47
2022/10/12 01:29:54;;;;;;;2.97;1.63;;;;;;;7.52;59.88;102403.09;4905859;28;100263;-48
2022/10/12 01:32:29;;;;;;;2.97;1.70;;;;;;;7.50;59.41;102400.03;4907211;28;97140;-48
2022/10/12 01:35:03;;;;;;;3.30;1.80;;;;;;;7.47;59.45;102398.13;4907757;28;96873;-47
2022/10/12 01:37:40;;;;;;;1.97;1.50;;;;;;;7.41;59.42;102399.06;4908085;28;97683;-47
2022/10/12 01:40:14;;;;;;;3.33;1.50;;;;;;;7.41;60.00;102393.59;4905861;28;101561;-47
2022/10/12 01:42:41;;;;;;;3.50;1.60;;;;;;;7.41;59.82;102399.84;4907820;28;96750;-47
2022/10/12 01:45:10;;;;;;;3.57;1.80;;;;;;;7.43;59.75;102400.19;4907428;28;96901;-47
2022/10/12 01:47:38;;;;;;;2.00;1.33;;;;;;;7.44;60.13;102392.75;4907908;28;96960;-48
2022/10/12 01:50:07;;;;;;;3.27;1.90;;;;;;;7.41;59.88;102386.16;4905350;28;96680;-47
2022/10/12 01:52:45;;;;;;;5.17;2.03;;;;;;;7.38;59.62;102392.47;4908124;28;97052;-48
2022/10/12 01:55:37;;;;;;;1.40;1.30;;;;;;;7.36;60.30;102394.88;4908271;28;97098;-48
2022/10/12 01:58:31;;;;;;;3.97;1.90;;;;;;;7.35;60.31;102403.53;4902690;28;103466;-48
2022/10/12 02:01:31;;;;;;;3.47;1.40;;;;;;;7.34;60.09;102382.81;4903590;28;102400;-47
2022/10/12 02:04:02;;;;;;;2.60;1.50;;;;;;;7.33;59.83;102392.22;4905004;28;96682;-47
2022/10/12 02:06:35;;;;;;;3.23;1.87;;;;;;;7.30;59.71;102385.66;4906274;28;97383;-47
2022/10/12 02:09:16;;;;;;;2.73;1.73;;;;;;;7.31;60.00;102389.16;4906052;28;100615;-48
2022/10/12 02:11:44;;;;;;;2.47;1.60;;;;;;;7.32;60.01;102385.97;4905054;28;100429;-48
2022/10/12 02:14:20;;;;;;;3.73;1.63;;;;;;;7.31;59.84;102381.72;4906528;28;97072;-47
2022/10/12 02:16:53;;;;;;;2.37;2.00;;;;;;;7.26;59.62;102386.91;4900553;28;97122;-48
2022/10/12 02:19:23;;;;;;;2.70;1.63;;;;;;;7.23;59.70;102377.59;4905509;28;98681;-47
2022/10/12 02:21:50;;;;;;;1.67;1.57;;;;;;;7.19;59.69;102379.66;4907076;28;97866;-48
2022/10/12 02:24:17;;;;;;;2.10;1.47;;;;;;;7.15;59.54;102378.19;4911901;28;96876;-47
2022/10/12 02:26:46;;;;;;;4.00;1.43;;;;;;;7.12;59.42;102382.53;4906990;28;97791;-47
2022/10/12 02:29:18;;;;;;;3.93;1.70;;;;;;;7.09;59.62;102380.66;4902279;28;98602;-48
2022/10/12 02:31:52;;;;;;;10.83;2.20;;;;;;;7.05;60.07;102373.72;4903898;28;97520;-48
2022/10/12 02:34:22;;;;;;;6.13;1.60;;;;;;;6.98;59.90;102371.16;4906853;28;96834;-48
2022/10/12 02:37:08;;;;;;;1.90;1.70;;;;;;;6.98;59.95;102366.47;4901980;28;97296;-48
2022/10/12 02:39:53;;;;;;;2.30;1.87;;;;;;;6.97;59.77;102362.16;4906072;28;101233;-49
2022/10/12 02:42:26;;;;;;;6.93;1.50;;;;;;;6.98;59.51;102354.72;4905791;28;97046;-48
2022/10/12 02:44:53;;;;;;;3.30;1.53;;;;;;;6.96;59.72;102355.16;4906531;28;97117;-48
2022/10/12 02:47:22;;;;;;;5.10;1.80;;;;;;;6.96;59.59;102346.19;4905381;28;97557;-48
2022/10/12 02:49:49;;;;;;;3.50;1.30;;;;;;;6.94;59.35;102348.56;4905189;28;98009;-49
2022/10/12 02:52:14;;;;;;;3.70;1.60;;;;;;;6.92;59.59;102351.75;4905430;28;97628;-48
2022/10/12 02:54:39;;;;;;;2.90;1.67;;;;;;;6.88;59.56;102351.03;4908989;28;97418;-48
2022/10/12 02:57:05;;;;;;;5.33;1.77;;;;;;;6.82;59.32;102350.00;4906457;28;97344;-48
2022/10/12 02:59:30;;;;;;;3.43;1.90;;;;;;;6.80;59.70;102352.41;4906805;28;97069;-48
2022/10/12 03:01:55;;;;;;;3.87;2.07;;;;;;;6.78;59.99;102341.88;4903570;28;97206;-48
2022/10/12 03:04:21;;;;;;;4.77;1.63;;;;;;;6.76;59.57;102343.50;4902685;28;104424;-47
2022/10/12 03:06:46;;;;;;;4.90;1.90;;;;;;;6.75;59.38;102337.25;4908436;28;97200;-48
2022/10/12 03:09:13;;;;;;;4.20;1.63;;;;;;;6.72;59.62;102342.81;4905030;28;97506;-48
2022/10/12 03:11:42;;;;;;;3.53;1.87;;;;;;;6.68;59.31;102333.91;4901044;28;97390;-48
2022/10/12 03:14:12;;;;;;;1.43;1.33;;;;;;;6.65;59.59;102342.97;4900135;28;97522;-48
2022/10/12 03:16:37;;;;;;;2.83;1.73;;;;;;;6.64;59.82;102344.91;4902348;28;97256;-48
2022/10/12 03:19:03;;;;;;;3.27;1.60;;;;;;;6.65;59.55;102340.22;4904930;28;98491;-48
2022/10/12 03:21:28;;;;;;;2.73;1.80;;;;;;;6.63;59.73;102337.16;4903575;28;97511;-48
2022/10/12 03:23:54;;;;;;;7.27;2.00;;;;;;;6.61;59.83;102331.34;4906843;28;97529;-48
2022/10/12 03:26:19;;;;;;;1.93;1.50;;;;;;;6.57;59.60;102336.13;4903620;28;97644;-47
2022/10/12 03:28:45;;;;;;;4.23;1.57;;;;;;;6.55;59.49;102327.56;4905293;28;97162;-51
2022/10/12 03:31:10;;;;;;;8.17;2.20;;;;;;;6.53;59.58;102335.44;4901731;28;114109;-48
2022/10/12 03:33:35;;;;;;;2.40;2.00;;;;;;;6.50;59.65;102322.59;4906691;28;97673;-48
2022/10/12 03:36:01;;;;;;;1.90;1.73;;;;;;;6.47;59.27;102326.16;4901143;28;105770;-48
2022/10/12 03:38:26;;;;;;;2.17;1.57;;;;;;;6.44;59.33;102321.56;4906397;28;97220;-48
2022/10/12 03:40:52;;;;;;;1.90;1.33;;;;;;;6.39;59.50;102325.56;4909732;28;97486;-48
2022/10/12 03:43:17;;;;;;;2.40;1.90;;;;;;;6.36;59.60;102329.13;4905061;28;97309;-48
2022/10/12 03:45:42;;;;;;;5.30;1.77;;;;;;;6.35;59.71;102326.81;4908670;28;97013;-48
2022/10/12 03:48:08;;;;;;;2.13;1.70;;;;;;;6.33;59.72;102321.78;4903006;28;98539;-48
2022/10/12 03:50:34;;;;;;;2.00;1.63;;;;;;;6.34;59.72;102322.53;4908005;28;98987;-48
2022/10/12 03:53:02;;;;;;;4.10;1.73;;;;;;;6.32;59.68;102322.19;4904590;28;97733;-48
2022/10/12 03:55:27;;;;;;;3.10;1.80;;;;;;;6.28;59.65;102321.47;4907654;28;97243;-48
2022/10/12 03:57:52;;;;;;;4.37;1.57;;;;;;;6.27;59.59;102317.22;4904918;28;97239;-48
2022/10/12 04:00:18;;;;;;;3.13;1.40;;;;;;;6.22;59.63;102320.44;4902584;28;97222;-49
2022/10/12 04:02:44;;;;;;;5.13;1.37;;;;;;;6.18;59.74;102342.34;4904470;28;96890;-48
2022/10/12 04:05:09;;;;;;;9.47;1.60;;;;;;;6.15;59.73;102326.81;4903643;28;97322;-48
2022/10/12 04:07:34;;;;;;;4.07;1.73;;;;;;;6.13;59.83;102326.47;4904668;28;96968;-48
2022/10/12 04:10:00;;;;;;;5.07;1.77;;;;;;;6.10;59.80;102329.25;4900088;28;99203;-48
2022/10/12 04:12:25;;;;;;;1.67;1.50;;;;;;;6.03;59.71;102321.97;4907236;28;97685;-48
2022/10/12 04:14:50;;;;;;;2.70;1.70;;;;;;;6.01;60.00;102333.31;4905843;28;101472;-48
2022/10/12 04:17:16;;;;;;;5.10;1.73;;;;;;;5.97;60.11;102332.63;4905510;28;98400;-48
2022/10/12 04:19:42;;;;;;;2.40;2.20;;;;;;;5.94;60.04;102332.72;4905081;28;97083;-48
2022/10/12 04:22:07;;;;;;;2.20;1.60;;;;;;;5.89;60.09;102325.75;4908164;28;96657;-49
2022/10/12 04:24:33;;;;;;;9.87;1.67;;;;;;;5.88;60.13;102317.97;4905792;28;97236;-48
2022/10/12 04:26:58;;;;;;;2.20;1.63;;;;;;;5.89;60.04;102325.75;4904473;28;97754;-48
2022/10/12 04:29:24;;;;;;;2.20;1.93;;;;;;;5.89;60.05;102320.31;4904335;28;98601;-48
2022/10/12 04:31:49;;;;;;;2.60;1.40;;;;;;;5.89;59.64;102319.53;4903834;28;98387;-48
2022/10/12 04:34:14;;;;;;;2.13;1.63;;;;;;;5.88;59.99;102324.22;4908201;28;98306;-48
2022/10/12 04:36:39;;;;;;;4.17;1.67;;;;;;;5.81;60.00;102316.13;4906689;28;117572;-48
2022/10/12 04:39:05;;;;;;;9.23;1.63;;;;;;;5.83;59.86;102318.44;4906865;28;98715;-48
2022/10/12 04:41:31;;;;;;;6.10;1.97;;;;;;;5.81;60.02;102332.50;4905715;28;96990;-48
2022/10/12 04:43:56;;;;;;;2.70;1.80;;;;;;;5.80;59.72;102330.97;4907906;28;97246;-48
2022/10/12 04:46:22;;;;;;;1.90;1.80;;;;;;;5.80;60.07;102325.50;4906429;28;98661;-48
2022/10/12 04:48:47;;;;;;;3.20;1.67;;;;;;;5.80;60.06;102330.19;4904643;28;97363;-48
2022/10/12 04:51:12;;;;;;;6.40;1.57;;;;;;;5.79;59.74;102334.88;4906883;28;97104;-48
2022/10/12 04:53:38;;;;;;;9.43;2.23;;;;;;;5.76;59.66;102326.75;4905559;28;96986;-48
2022/10/12 04:56:05;;;;;;;2.03;1.67;;;;;;;5.68;59.74;102328.84;4907004;28;97554;-48
2022/10/12 04:58:30;;;;;;;3.73;1.97;;;;;;;5.63;59.53;102323.09;4904519;28;99118;-47
2022/10/12 05:00:56;;;;;;;3.70;1.53;;;;;;;5.58;60.06;102324.34;4907734;28;96814;-47
2022/10/12 05:03:21;;;;;;;2.60;1.60;;;;;;;5.55;59.94;102325.16;4905197;28;97063;-48
2022/10/12 05:05:46;;;;;;;3.07;2.00;;;;;;;5.50;60.29;102324.88;4902735;28;99456;-47
2022/10/12 05:08:12;;;;;;;2.80;1.63;;;;;;;5.48;59.95;102317.13;4905243;28;98961;-49
2022/10/12 05:10:38;;;;;;;3.73;1.77;;;;;;;5.49;60.54;102323.34;4908367;28;97291;-48
2022/10/12 05:13:03;;;;;;;1.83;1.63;;;;;;;5.53;60.08;102316.63;4905190;28;96853;-48
2022/10/12 05:15:29;;;;;;;2.40;1.60;;;;;;;5.55;60.20;102322.44;4906742;28;100185;-48
2022/10/12 05:17:54;;;;;;;2.20;1.70;;;;;;;5.52;59.74;102317.84;4905239;28;97269;-48
2022/10/12 05:20:20;;;;;;;2.00;1.37;;;;;;;5.48;60.07;102321.81;4909088;28;97353;-47
2022/10/12 05:22:45;;;;;;;2.13;1.73;;;;;;;5.46;60.11;102326.91;4906343;28;97318;-47
2022/10/12 05:25:10;;;;;;;2.80;1.70;;;;;;;5.46;60.05;102319.47;4904871;28;97547;-48
2022/10/12 05:27:36;;;;;;;2.43;2.23;;;;;;;5.46;60.40;102308.56;4907913;28;97188;-48
2022/10/12 05:30:03;;;;;;;3.77;1.70;;;;;;;5.49;60.21;102307.72;4906600;28;98070;-49
2022/10/12 05:32:28;;;;;;;2.47;1.50;;;;;;;5.48;60.09;102317.13;4909325;28;97128;-48
2022/10/12 05:34:54;;;;;;;1.70;1.60;;;;;;;5.48;60.08;102314.41;4905802;28;107082;-47
2022/10/12 05:37:19;;;;;;;3.47;1.90;;;;;;;5.46;60.31;102316.75;4907534;28;97371;-47
2022/10/12 05:39:45;;;;;;;1.50;1.40;;;;;;;5.45;60.10;102312.50;4903177;28;97138;-48
2022/10/12 05:42:10;;;;;;;4.10;1.67;;;;;;;5.46;60.22;102316.00;4907714;28;97314;-48
2022/10/12 05:44:36;;;;;;;1.93;1.23;;;;;;;5.44;60.03;102316.38;4906294;28;97390;-48
2022/10/12 05:47:02;;;;;;;6.80;1.97;;;;;;;5.42;60.40;102320.75;4906852;28;98289;-48
2022/10/12 05:49:27;;;;;;;4.43;1.50;;;;;;;5.38;60.43;102323.53;4905586;28;97686;-48
2022/10/12 05:51:53;;;;;;;2.93;1.70;;;;;;;5.32;60.29;102317.78;4906128;28;97181;-49
2022/10/12 05:54:18;;;;;;;2.20;1.47;;;;;;;5.34;60.29;102317.34;4907805;28;97877;-48
2022/10/12 05:56:44;;;;;;;1.53;1.13;;;;;;;5.34;60.41;102320.09;4905011;28;96797;-47
2022/10/12 05:59:10;;;;;;;2.97;1.37;;;;;;;5.32;60.45;102317.78;4903508;28;97080;-48
2022/10/12 06:01:35;;;;;;;4.23;2.10;;;;;;;5.31;60.39;102318.16;4901511;28;97254;-47
2022/10/12 06:04:01;;;;;;;1.77;1.47;;;;;;;5.30;60.60;102305.72;4905435;28;98246;-48
2022/10/12 06:06:26;;;;;;;1.73;1.63;;;;;;;5.32;60.50;102317.00;4904107;28;98362;-48
2022/10/12 06:08:51;;;;;;;1.83;1.27;;;;;;;5.33;60.20;102316.56;4903894;28;97022;-48
2022/10/12 06:11:17;;;;;;;2.00;1.90;;;;;;;5.36;60.43;102320.44;4907431;28;96899;-48
2022/10/12 06:13:42;;;;;;;1.83;1.50;;;;;;;5.38;60.22;102312.59;4908083;28;97285;-48
2022/10/12 06:16:07;;;;;;;2.97;2.17;;;;;;;5.39;60.39;102316.88;4906274;28;97306;-48
2022/10/12 06:18:33;;;;;;;4.30;1.87;;;;;;;5.40;60.14;102312.19;4905566;28;97079;-48
2022/10/12 06:20:58;;;;;;;2.10;1.57;;;;;;;5.41;60.66;102308.28;4901616;28;105010;-48
2022/10/12 06:23:24;;;;;;;4.07;1.50;;;;;;;5.39;60.60;102310.66;4902920;28;118181;-48
2022/10/12 06:25:50;;;;;;;1.50;1.40;;;;;;;5.40;60.28;102309.44;4907783;28;97688;-48
2022/10/12 06:28:19;;;;;;;2.60;1.57;;;;;;;5.42;60.50;102307.09;4903176;28;96985;-48
2022/10/12 06:30:45;;;;;;;1.90;1.40;;;;;;;5.45;60.50;102304.31;4908845;28;97011;-48
2022/10/12 06:33:11;;;;;;;3.93;2.23;;;;;;;5.47;60.50;102312.84;4905491;28;97258;-48
2022/10/12 06:35:36;;;;;;;4.57;1.90;;;;;;;5.50;60.59;102303.84;4906807;28;96612;-48
2022/10/12 06:38:02;;;;;;;4.70;2.07;;;;;;;5.52;60.88;102306.91;4907665;28;97219;-48
2022/10/12 06:40:27;;;;;;;6.33;2.13;;;;;;;5.53;60.58;102311.16;4905352;28;97164;-48
2022/10/12 06:42:53;;;;;;;6.93;1.80;;;;;;;5.53;60.21;102310.38;4901412;28;98573;-48
2022/10/12 06:45:18;;;;;;;2.77;1.60;;;;;;;5.55;60.55;102310.78;4904102;28;97017;-48
2022/10/12 06:47:44;;;;;;;1.83;1.53;;;;;;;5.56;60.86;102302.16;4900953;28;97162;-49
2022/10/12 06:50:11;;;;;;;2.77;1.87;;;;;;;5.58;60.76;102310.69;4905765;28;98612;-48
2022/10/12 06:52:36;;;;;;;5.60;1.70;;;;;;;5.60;60.92;102310.28;4905208;28;103123;-48
2022/10/12 06:55:02;;;;;;;7.47;1.87;;;;;;;5.63;60.58;102314.91;4906940;28;97271;-48
2022/10/12 06:57:28;;;;;;;5.23;2.10;;;;;;;5.65;60.68;102307.84;4905229;28;97314;-47
2022/10/12 06:59:53;;;;;;;3.63;1.60;;;;;;;5.68;60.55;102314.44;4906617;28;97326;-48
2022/10/12 07:02:18;;;;;;;1.87;1.63;;;;;;;5.72;60.87;102313.16;4904292;28;97290;-48
2022/10/12 07:04:47;;;;;;;4.80;1.60;;;;;;;5.78;61.08;102308.78;4902770;28;97339;-48
2022/10/12 07:07:13;;;;;;;4.40;1.80;;;;;;;5.87;61.05;102319.19;4902727;28;96996;-48
2022/10/12 07:09:38;;;;;;;1.83;1.33;;;;;;;5.90;60.91;102319.09;4904005;28;97367;-48
2022/10/12 07:12:03;;;;;;;3.13;1.77;;;;;;;5.92;60.86;102314.00;4904325;28;114126;-48
2022/10/12 07:14:29;;;;;;;2.50;1.23;;;;;;;5.98;60.70;102311.56;4905113;28;97989;-48
2022/10/12 07:16:54;;;;;;;1.73;1.63;;;;;;;6.02;60.93;102313.03;4908506;28;103766;-48
2022/10/12 07:19:19;;;;;;;4.13;1.60;;;;;;;6.09;60.99;102317.59;4907448;28;101440;-48
2022/10/12 07:21:45;;;;;;;1.40;1.30;;;;;;;6.15;60.94;102320.59;4909682;28;113511;-48
2022/10/12 07:24:11;;;;;;;2.17;1.60;;;;;;;6.15;60.77;102306.91;4910503;28;97421;-50
2022/10/12 07:26:36;;;;;;;3.27;1.97;;;;;;;6.23;60.90;102311.03;4906708;28;96673;-48
2022/10/12 07:29:02;;;;;;;1.93;1.30;;;;;;;6.26;60.77;102312.94;4907799;28;97718;-48
2022/10/12 07:31:27;;;;;;;1.53;1.10;;;;;;;6.27;61.25;102314.50;4907985;28;97928;-48
2022/10/12 07:33:53;;;;;;;3.17;1.50;;;;;;;6.32;60.91;102317.50;4906400;28;96726;-48
2022/10/12 07:36:18;;;;;;;1.30;1.20;;;;;;;6.37;60.98;102325.22;4908906;28;97734;-48
2022/10/12 07:38:44;;;;;;;1.50;1.30;;;;;;;6.46;61.17;102327.38;4907466;28;98741;-48
2022/10/12 07:41:09;;;;;;;2.63;1.33;;;;;;;6.53;61.13;102324.50;4907752;28;97904;-48
2022/10/12 07:43:35;;;;;;;4.03;1.90;;;;;;;6.60;61.19;102333.28;4907351;28;97293;-48
2022/10/12 07:46:02;;;;;;;2.10;1.23;;;;;;;6.67;61.06;102324.94;4910561;28;97000;-48
2022/10/12 07:48:27;;;;;;;2.23;1.60;;;;;;;6.78;61.08;102324.69;4910685;28;96713;-48
2022/10/12 07:50:52;;;;;;;3.80;1.40;;;;;;;6.84;61.34;102317.53;4907122;28;106270;-48
2022/10/12 07:53:18;;;;;;;1.30;1.20;;;;;;;6.92;61.42;102312.66;4908235;28;98317;-48
2022/10/12 07:55:43;;;;;;;3.43;1.50;;;;;;;7.02;61.00;102322.59;4908968;28;97251;-48
2022/10/12 07:58:08;;;;;;;5.00;1.60;;;;;;;7.09;61.31;102323.19;4908255;28;97306;-48
2022/10/12 08:00:33;;;;;;;2.90;1.17;;;;;;;7.16;61.14;102322.25;4911061;28;98058;-48
2022/10/12 08:02:59;;;;;;;1.33;1.23;;;;;;;7.23;61.24;102316.63;4911277;28;98010;-48
2022/10/12 08:05:25;;;;;;;3.23;1.73;;;;;;;7.32;61.36;102317.53;4907464;28;96920;-48
2022/10/12 08:07:51;;;;;;;1.53;1.23;;;;;;;7.41;61.63;102319.66;4908314;28;96987;-48
2022/10/12 08:10:18;;;;;;;3.43;1.50;;;;;;;7.48;61.51;102328.50;4908295;28;97441;-48
2022/10/12 08:12:44;;;;;;;5.13;1.30;;;;;;;7.55;61.37;102322.06;4904998;28;97802;-47
2022/10/12 08:15:11;;;;;;;1.50;1.40;;;;;;;7.67;61.76;102317.81;4907987;28;97380;-48
2022/10/12 08:17:36;;;;;;;3.37;1.50;;;;;;;7.76;61.45;102326.97;4908795;28;96951;-48
2022/10/12 08:20:02;;;;;;;3.17;1.47;;;;;;;7.88;61.45;102333.72;4905375;28;113367;-48
2022/10/12 08:22:27;;;;;;;3.30;1.60;;;;;;;7.97;61.71;102325.66;4908632;28;97064;-48
2022/10/12 08:24:52;;;;;;;2.40;1.43;;;;;;;8.05;61.88;102327.75;4909746;28;96686;-48
2022/10/12 08:27:17;;;;;;;2.37;1.40;;;;;;;8.15;61.85;102325.91;4905946;28;96971;-48
2022/10/12 08:29:43;;;;;;;2.80;1.53;;;;;;;8.24;61.92;102332.31;4907676;28;120375;-48
2022/10/12 08:32:08;;;;;;;2.43;1.80;;;;;;;8.34;62.07;102324.25;4910828;28;97125;-47
2022/10/12 08:34:33;;;;;;;5.07;1.50;;;;;;;8.44;61.96;102323.94;4908712;28;97118;-47
2022/10/12 08:36:59;;;;;;;3.10;1.57;;;;;;;8.57;62.04;102319.22;4908046;28;99886;-48
2022/10/12 08:39:24;;;;;;;1.67;1.53;;;;;;;8.70;62.09;102319.22;4904300;28;96887;-48
2022/10/12 08:42:08;;;;;;;2.00;1.80;;;;;;;8.83;62.54;102317.25;4906396;28;97263;-48
2022/10/12 08:45:06;;;;;;;3.30;2.10;;;;;;;9.00;63.42;102324.16;4906992;28;96972;-48
2022/10/12 08:47:35;;;;;;;2.63;1.20;;;;;;;9.14;62.41;102315.47;4903522;28;97104;-47
2022/10/12 08:50:03;;;;;;;4.50;1.87;;;;;;;9.26;62.15;102325.66;4904782;28;97072;-48
2022/10/12 08:52:40;;;;;;;2.43;1.90;;;;;;;9.41;62.55;102317.75;4907092;28;96975;-48
2022/10/12 08:55:30;;;;;;;3.73;1.90;;;;;;;9.55;63.42;102322.75;4911461;28;97053;-49
2022/10/12 08:57:55;;;;;;;4.13;2.00;;;;;;;9.66;62.13;102317.66;4906458;28;97097;-48
2022/10/12 09:00:21;;;;;;;6.50;2.47;;;;;;;9.78;62.43;102317.59;4904406;28;96856;-48
2022/10/12 09:02:55;;;;;;;8.10;2.00;;;;;;;9.95;63.12;102326.47;4908271;28;97319;-48
2022/10/12 09:05:29;;;;;;;2.70;2.10;;;;;;;10.10;62.78;102327.47;4904224;28;97188;-48
2022/10/12 09:08:02;;;;;;;3.47;2.50;;;;;;;10.23;62.65;102322.72;4905212;28;97087;-47
2022/10/12 09:10:43;;;;;;;4.97;2.00;;;;;;;10.41;63.44;102319.31;4905810;28;97188;-48
2022/10/12 09:13:38;;;;;;;6.43;2.40;;;;;;;10.55;62.65;102319.53;4906225;28;102875;-48
2022/10/12 09:16:11;;;;;;;4.70;2.07;;;;;;;10.70;62.60;102317.00;4901855;28;97438;-47
2022/10/12 09:18:39;;;;;;;6.80;2.40;;;;;;;10.83;62.58;102317.69;4905359;28;97066;-48
2022/10/12 09:21:16;;;;;;;5.93;2.30;;;;;;;10.98;62.75;102315.88;4905835;28;97960;-48
2022/10/12 09:23:43;;;;;;;5.00;2.47;;;;;;;11.12;62.52;102306.25;4904969;28;97317;-47
2022/10/12 09:26:25;;;;;;;2.57;2.37;;;;;;;11.23;62.80;102304.63;4907121;28;96802;-48
2022/10/12 09:28:54;;;;;;;4.53;2.30;;;;;;;11.37;62.84;102306.03;4904723;28;97100;-47
2022/10/12 09:31:22;;;;;;;3.27;2.17;;;;;;;11.48;62.68;102303.59;4906378;28;98462;-48
2022/10/12 09:33:54;;;;;;;6.17;2.30;;;;;;;11.61;62.92;102298.69;4907947;28;97502;-47
2022/10/12 09:36:22;;;;;;;3.77;2.23;;;;;;;11.72;62.70;102299.03;4897395;28;97227;-47
2022/10/12 09:38:48;;;;;;;3.53;1.80;;;;;;;11.82;62.64;102297.03;4905635;28;97307;-48
2022/10/12 09:41:28;;;;;;;3.43;2.00;;;;;;;11.93;63.38;102298.09;4906232;28;97865;-48
2022/10/12 09:43:58;;;;;;;2.60;1.70;;;;;;;12.03;62.74;102294.06;4906165;28;97181;-48
2022/10/12 09:46:45;;;;;;;3.63;1.53;;;;;;;12.19;63.19;102289.47;4905994;28;97326;-48
2022/10/12 09:49:10;;;;;;;2.30;1.23;;;;;;;12.31;62.23;102294.03;4906618;28;97260;-47
2022/10/12 09:51:36;;;;;;;3.97;1.63;;;;;;;12.46;62.23;102290.16;4907009;28;97402;-48
2022/10/12 09:54:03;;;;;;;3.90;1.43;;;;;;;12.60;61.83;102294.25;4901276;28;97635;-48
2022/10/12 09:56:50;;;;;;;2.70;1.30;;;;;;;12.70;62.61;102290.22;4905976;28;97003;-49
2022/10/12 09:59:35;;;;;;;4.10;1.43;;;;;;;12.79;62.41;102287.41;4904536;28;97433;-48
2022/10/12 10:02:06;;;;;;;7.23;2.00;;;;;;;12.89;61.95;102294.41;4905054;28;100540;-48
2022/10/12 10:04:33;;;;;;;2.17;1.17;;;;;;;12.98;61.81;102294.38;4896891;28;96979;-47
2022/10/12 10:07:33;;;;;;;3.03;1.43;;;;;;;13.14;61.80;102293.25;4905695;28;98673;-47
2022/10/12 10:10:12;;;;;;;3.30;1.30;;;;;;;13.31;61.44;102283.28;4883563;28;97291;-48
2022/10/12 10:12:50;;;;;;;3.20;1.40;;;;;;;13.44;61.33;102287.34;4907046;28;102071;-49
2022/10/12 10:15:22;;;;;;;2.77;1.47;;;;;;;13.54;61.25;102280.50;4903182;28;97345;-48
2022/10/12 10:17:52;;;;;;;7.90;1.30;;;;;;;13.64;61.33;102280.44;4902886;28;97111;-48
2022/10/12 10:20:50;;;;;;;2.40;1.27;;;;;;;13.72;61.66;102276.81;4906611;28;96901;-48
2022/10/12 10:23:27;;;;;;;5.10;1.50;;;;;;;13.84;60.75;102281.34;4905740;28;101967;-48
2022/10/12 10:26:07;;;;;;;2.67;1.30;;;;;;;13.93;60.74;102277.72;4906592;28;100231;-48
2022/10/12 10:28:38;;;;;;;3.67;0.93;;;;;;;14.06;60.93;102278.19;4901945;28;96775;-48
2022/10/12 10:31:04;;;;;;;2.40;1.30;;;;;;;14.18;60.66;102280.69;4902885;28;97346;-47
2022/10/12 10:33:34;;;;;;;2.70;1.40;;;;;;;14.35;60.46;102285.75;4905360;28;97520;-48
2022/10/12 10:36:00;;;;;;;6.63;1.47;;;;;;;14.45;60.46;102274.09;4903830;28;96710;-48
2022/10/12 10:38:27;;;;;;;2.50;1.50;;;;;;;14.55;60.05;102285.81;4904433;28;97291;-48
2022/10/12 10:40:56;;;;;;;2.73;1.07;;;;;;;14.66;59.99;102275.69;4904153;28;97567;-48
2022/10/12 10:43:30;;;;;;;1.97;1.30;;;;;;;14.76;59.63;102274.34;4905017;28;97575;-47
2022/10/12 10:46:03;;;;;;;4.37;1.27;;;;;;;14.91;59.51;102268.75;4904039;28;97199;-47
2022/10/12 10:48:37;;;;;;;10.53;1.70;;;;;;;15.05;59.32;102267.91;4906844;28;97306;-48
2022/10/12 10:51:05;;;;;;;1.93;0.83;;;;;;;15.18;59.06;102260.00;4905243;28;96886;-48
2022/10/12 10:53:42;;;;;;;4.43;1.30;;;;;;;15.31;58.61;102257.66;4903540;28;97486;-48
2022/10/12 10:56:14;;;;;;;4.03;1.30;;;;;;;15.39;58.44;102252.47;4904091;28;98818;-48
2022/10/12 10:58:49;;;;;;;3.33;1.20;;;;;;;15.50;57.91;102238.75;4904839;28;97271;-47
2022/10/12 11:01:24;;;;;;;1.43;1.20;;;;;;;15.61;58.00;102241.63;4904470;28;97193;-48
2022/10/12 11:03:59;;;;;;;6.27;1.10;;;;;;;15.71;57.56;102234.66;4904884;28;100483;-47
2022/10/12 11:07:09;;;;;;;3.60;1.20;;;;;;;15.88;57.56;102235.59;4903647;28;100768;-49
2022/10/12 11:09:43;;;;;;;2.30;1.00;;;;;;;16.11;57.08;102233.78;4865272;28;97651;-48
2022/10/12 11:12:16;;;;;;;1.87;1.00;;;;;;;16.25;56.99;102232.88;4863132;28;96833;-48
2022/10/12 11:14:51;;;;;;;2.93;1.00;;;;;;;16.44;56.06;102226.47;4888133;28;96802;-49
2022/10/12 11:17:36;;;;;;;6.83;1.00;;;;;;;16.62;54.90;102221.81;4897434;28;97312;-47
2022/10/12 11:20:20;;;;;;;3.90;0.93;;;;;;;16.80;56.11;102222.16;4907255;28;96775;-47
2022/10/12 11:22:52;;;;;;;2.20;0.87;;;;;;;17.01;55.51;102220.75;4902825;28;96782;-48
2022/10/12 11:25:57;;;;;;;4.90;1.00;;;;;;;17.14;53.84;102211.94;4904933;28;97883;-48
2022/10/12 11:28:29;;;;;;;10.50;1.43;;;;;;;17.33;55.27;102213.00;4905796;28;100171;-48
2022/10/12 11:30:56;;;;;;;2.10;1.07;;;;;;;17.51;55.36;102211.81;4906994;28;97212;-48
2022/10/12 11:33:26;;;;;;;1.20;1.10;;;;;;;17.71;54.55;102204.00;4904119;28;97185;-48
2022/10/12 11:35:54;;;;;;;3.27;1.00;;;;;;;17.85;54.54;102207.81;4905199;28;97495;-48
2022/10/12 11:38:29;;;;;;;1.57;0.97;;;;;;;18.05;53.62;102215.16;4902326;28;97514;-48
2022/10/12 11:41:00;;;;;;;1.77;1.30;;;;;;;18.24;53.87;102200.19;4903323;28;97328;-49
2022/10/12 11:43:30;;;;;;;3.83;0.90;;;;;;;18.40;52.73;102201.44;4905124;28;97103;-48